Time;durP1;ratioP1;P1;durP2;ratioP2;P2;SDS_P1;SDS_P2;PMS_P1;PMS_P2;Temp;Humidity;BMP_temperature;BMP_pressure;BME280_temperature;BME280_humidity;BME280_pressure;Samples;Min_cycle;Max_cycle;Signal;HPM_P1;HPM_P2
2023/04/06 00:01:37;;;;;;;12.53;9.73;;;;;;;;;;6162155;23;20839;-76
2023/04/06 00:04:14;;;;;;;11.40;10.20;;;;;;;;;;6162909;23;20489;-76
2023/04/06 00:07:00;;;;;;;10.40;9.40;;;;;;;;;;6162325;23;20431;-77
2023/04/06 00:09:32;;;;;;;11.07;10.00;;;;;;;;;;6161726;23;20415;-76
2023/04/06 00:12:10;;;;;;;16.23;10.90;;;;;;;;;;6161136;23;21034;-76
2023/04/06 00:14:40;;;;;;;11.80;10.37;;;;;;;;;;6161203;23;20486;-77
2023/04/06 00:17:13;;;;;;;12.10;10.77;;;;;;;;;;6162078;23;20500;-77
2023/04/06 00:25:53;;;;;;;12.67;10.17;;;;;;;;;;6161971;23;20447;-76
2023/04/06 00:28:51;;;;;;;13.40;11.10;;;;;;;;;;6162849;23;20412;-76
2023/04/06 00:31:44;;;;;;;14.63;13.10;;;;;;;;;;6163109;23;20463;-75
2023/04/06 00:34:45;;;;;;;12.77;11.40;;;;;;;;;;6163130;23;20431;-77
2023/04/06 00:37:36;;;;;;;14.20;11.47;;;;;;;;;;6165471;23;20440;-76
2023/04/06 00:40:12;;;;;;;13.83;11.20;;;;;;;;;;6152189;23;20496;-76
2023/04/06 00:43:02;;;;;;;14.93;13.00;;;;;;;;;;6166869;23;21266;-76
2023/04/06 00:45:55;;;;;;;;;;;;;;;;;;;;;
2023/04/06 00:51:19;;;;;;;13.80;12.60;;;;;;;;;;6137186;23;20428;-76
2023/04/06 00:53:57;;;;;;;15.10;13.50;;;;;;;;;;6156537;23;20435;-76
2023/04/06 00:56:39;;;;;;;;;;;;;;;;;;;;;
2023/04/06 00:59:16;;;;;;;15.30;11.90;;;;;;;;;;6160858;23;20692;-76
2023/04/06 01:04:46;;;;;;;12.87;11.50;;;;;;;;;;6159224;23;20785;-77
2023/04/06 01:07:19;;;;;;;18.00;13.17;;;;;;;;;;6160787;23;20427;-76
2023/04/06 01:10:05;;;;;;;16.63;13.00;;;;;;;;;;6158825;23;21072;-76
2023/04/06 01:24:47;;;;;;;15.93;13.20;;;;;;;;;;6150098;23;20510;-75
2023/04/06 01:27:23;;;;;;;14.50;12.63;;;;;;;;;;6146486;23;20466;-76
2023/04/06 01:30:00;;;;;;;16.37;12.87;;;;;;;;;;6159018;23;20471;-77
2023/04/06 01:35:44;;;;;;;15.17;13.53;;;;;;;;;;6040043;23;20984;-75
2023/04/06 01:38:38;;;;;;;15.50;14.00;;;;;;;;;;6152901;23;20438;-76
2023/04/06 01:41:14;;;;;;;15.40;13.90;;;;;;;;;;6158098;23;20475;-75
2023/04/06 01:44:03;;;;;;;17.03;15.23;;;;;;;;;;6159644;23;20411;-75
2023/04/06 01:46:59;;;;;;;19.13;15.17;;;;;;;;;;6161089;23;20436;-76
2023/04/06 01:49:34;;;;;;;18.63;14.80;;;;;;;;;;6162670;23;20419;-77
2023/04/06 01:52:13;;;;;;;18.90;16.00;;;;;;;;;;6162064;23;20443;-76
2023/04/06 01:54:54;;;;;;;16.50;14.80;;;;;;;;;;6159265;23;20443;-76
2023/04/06 01:57:43;;;;;;;16.30;14.70;;;;;;;;;;6158709;23;20399;-76
2023/04/06 02:00:22;;;;;;;17.13;15.10;;;;;;;;;;6159602;23;20439;-77
2023/04/06 02:03:14;;;;;;;16.53;14.60;;;;;;;;;;6159031;23;20506;-75
2023/04/06 02:05:52;;;;;;;16.50;14.57;;;;;;;;;;6159167;23;20503;-77
2023/04/06 02:08:34;;;;;;;19.63;15.07;;;;;;;;;;6159130;23;20869;-77
2023/04/06 02:11:12;;;;;;;15.20;13.70;;;;;;;;;;6158061;23;20416;-76
2023/04/06 02:13:53;;;;;;;16.70;14.90;;;;;;;;;;6158307;23;20460;-76
2023/04/06 02:16:40;;;;;;;16.70;15.03;;;;;;;;;;6156848;23;20420;-76
2023/04/06 02:19:22;;;;;;;17.47;15.50;;;;;;;;;;6157817;23;20419;-76
2023/04/06 02:22:15;;;;;;;17.60;14.90;;;;;;;;;;6159253;23;20400;-75
2023/04/06 02:24:50;;;;;;;18.07;15.33;;;;;;;;;;6136289;23;20409;-77
2023/04/06 02:27:39;;;;;;;16.63;14.70;;;;;;;;;;6163391;23;20466;-77
2023/04/06 02:30:20;;;;;;;18.93;15.83;;;;;;;;;;6154414;23;20440;-76
2023/04/06 02:32:50;;;;;;;16.93;15.20;;;;;;;;;;6162008;23;20443;-77
2023/04/06 02:35:46;;;;;;;16.70;15.00;;;;;;;;;;6161989;23;20437;-75
2023/04/06 02:41:18;;;;;;;18.10;15.20;;;;;;;;;;6162558;23;20400;-76
2023/04/06 02:47:08;;;;;;;18.90;15.27;;;;;;;;;;6161795;23;20432;-76
2023/04/06 02:49:59;;;;;;;18.00;15.27;;;;;;;;;;6163657;23;20519;-76
2023/04/06 02:52:41;;;;;;;18.77;15.60;;;;;;;;;;6166167;23;20526;-77
2023/04/06 02:55:42;;;;;;;;;;;;;;;;;;;;;
2023/04/06 03:01:20;;;;;;;18.60;16.50;;;;;;;;;;6146743;23;20423;-76
2023/04/06 03:04:00;;;;;;;16.63;14.60;;;;;;;;;;6163553;23;20408;-75
2023/04/06 03:06:36;;;;;;;16.60;14.90;;;;;;;;;;6162241;23;20523;-76
2023/04/06 03:09:11;;;;;;;17.70;15.80;;;;;;;;;;6162466;23;20407;-77
2023/04/06 03:11:42;;;;;;;19.40;16.27;;;;;;;;;;6163980;23;20487;-76
2023/04/06 03:14:28;;;;;;;17.63;15.67;;;;;;;;;;6163242;23;20443;-75
2023/04/06 03:17:11;;;;;;;16.50;14.80;;;;;;;;;;6164059;23;20499;-76
2023/04/06 03:19:54;;;;;;;17.27;15.57;;;;;;;;;;6166087;23;20411;-75
2023/04/06 03:22:49;;;;;;;20.87;15.00;;;;;;;;;;6165726;23;20415;-78
2023/04/06 03:25:29;;;;;;;16.37;14.83;;;;;;;;;;6163657;23;20432;-76
2023/04/06 03:28:25;;;;;;;18.87;15.10;;;;;;;;;;6133944;23;20401;-76
2023/04/06 03:31:13;;;;;;;;;;;;;;;;;;;;;
2023/04/06 03:36:40;;;;;;;17.30;15.30;;;;;;;;;;6132593;23;20457;-77
2023/04/06 03:39:27;;;;;;;17.47;15.27;;;;;;;;;;6135445;23;20409;-74
2023/04/06 03:42:00;;;;;;;18.33;16.20;;;;;;;;;;6134695;23;20512;-76
2023/04/06 03:44:34;;;;;;;16.70;15.00;;;;;;;;;;6134637;23;20405;-77
2023/04/06 03:47:11;;;;;;;17.47;15.60;;;;;;;;;;6133069;23;20545;-76
2023/04/06 03:50:02;;;;;;;17.50;15.70;;;;;;;;;;6107608;23;20418;-76
2023/04/06 03:52:38;;;;;;;17.90;15.07;;;;;;;;;;6108750;23;20480;-75
2023/04/06 03:55:21;;;;;;;18.07;15.90;;;;;;;;;;6110550;23;20417;-76
2023/04/06 03:57:57;;;;;;;19.20;16.43;;;;;;;;;;6109749;23;20517;-76
2023/04/06 04:00:29;;;;;;;21.03;16.00;;;;;;;;;;6107680;23;20413;-76
2023/04/06 04:03:12;;;;;;;17.27;14.90;;;;;;;;;;6102118;23;20422;-77
2023/04/06 04:05:55;;;;;;;22.13;17.27;;;;;;;;;;6103267;23;20434;-77
2023/04/06 04:08:29;;;;;;;19.13;16.13;;;;;;;;;;6099344;23;20427;-77
2023/04/06 04:11:08;;;;;;;24.73;17.67;;;;;;;;;;6097680;23;20412;-76
2023/04/06 04:13:42;;;;;;;17.97;14.80;;;;;;;;;;6099566;23;20472;-76
2023/04/06 04:16:24;;;;;;;19.03;16.90;;;;;;;;;;6101719;23;20469;-77
2023/04/06 04:21:53;;;;;;;20.13;15.13;;;;;;;;;;6098302;23;20836;-77
2023/04/06 04:24:26;;;;;;;21.27;16.10;;;;;;;;;;6101577;23;20414;-76
2023/04/06 04:26:55;;;;;;;16.33;14.70;;;;;;;;;;6119070;23;20441;-78
2023/04/06 04:29:58;;;;;;;21.07;18.20;;;;;;;;;;6126956;23;20404;-76
2023/04/06 04:32:32;;;;;;;21.80;16.87;;;;;;;;;;6125340;23;20547;-78
2023/04/06 04:35:13;;;;;;;17.23;15.50;;;;;;;;;;6129090;23;20500;-75
2023/04/06 04:37:48;;;;;;;17.70;15.50;;;;;;;;;;6129628;23;20752;-76
2023/04/06 04:40:24;;;;;;;21.00;16.43;;;;;;;;;;6133088;23;20491;-76
2023/04/06 04:43:04;;;;;;;17.40;15.50;;;;;;;;;;6136853;23;20668;-76
2023/04/06 04:45:47;;;;;;;22.57;16.33;;;;;;;;;;6135814;23;20416;-77
2023/04/06 04:48:49;;;;;;;19.67;16.17;;;;;;;;;;6133816;23;20421;-79
2023/04/06 04:51:26;;;;;;;19.30;15.90;;;;;;;;;;6135157;23;20427;-77
2023/04/06 04:54:13;;;;;;;17.17;15.37;;;;;;;;;;6134535;23;20428;-77
2023/04/06 04:56:59;;;;;;;17.27;15.57;;;;;;;;;;6134090;23;20441;-77
2023/04/06 04:59:47;;;;;;;18.33;15.43;;;;;;;;;;6133972;23;20917;-77
2023/04/06 05:02:28;;;;;;;20.53;16.30;;;;;;;;;;6131623;23;20429;-76
2023/04/06 05:05:18;;;;;;;19.33;17.33;;;;;;;;;;6129855;23;20439;-75
2023/04/06 05:08:27;;;;;;;;;;;;;;;;;;;;;
2023/04/06 05:11:07;;;;;;;21.13;16.77;;;;;;;;;;6131963;23;20709;-75
2023/04/06 05:13:42;;;;;;;20.53;17.10;;;;;;;;;;6131392;23;20444;-78
2023/04/06 05:16:10;;;;;;;22.83;17.87;;;;;;;;;;6134252;23;21047;-78
2023/04/06 05:18:46;;;;;;;19.10;16.33;;;;;;;;;;6132683;23;20504;-78
2023/04/06 05:21:17;;;;;;;19.50;16.77;;;;;;;;;;6131413;23;20421;-76
2023/04/06 05:23:51;;;;;;;21.13;17.33;;;;;;;;;;6132459;23;20409;-76
2023/04/06 05:29:33;;;;;;;17.63;15.80;;;;;;;;;;6134029;23;20408;-76
2023/04/06 05:32:15;;;;;;;21.17;16.57;;;;;;;;;;6135357;23;20484;-77
2023/04/06 05:37:33;;;;;;;18.40;16.50;;;;;;;;;;6118938;23;20413;-76
2023/04/06 05:40:10;;;;;;;20.13;16.30;;;;;;;;;;6133079;23;20494;-77
2023/04/06 05:42:44;;;;;;;18.80;16.87;;;;;;;;;;6133939;23;20421;-78
2023/04/06 05:45:18;;;;;;;19.37;16.40;;;;;;;;;;6131005;23;20417;-77
2023/04/06 05:47:55;;;;;;;18.37;15.50;;;;;;;;;;6128632;23;20412;-78
2023/04/06 05:50:35;;;;;;;19.57;17.23;;;;;;;;;;6127725;23;20417;-76
2023/04/06 05:53:15;;;;;;;25.47;17.00;;;;;;;;;;6129444;23;20444;-77
2023/04/06 05:55:54;;;;;;;20.60;16.40;;;;;;;;;;6138398;23;20433;-77
2023/04/06 06:04:06;;;;;;;18.73;16.80;;;;;;;;;;6129449;23;20404;-76
2023/04/06 06:06:44;;;;;;;20.47;16.27;;;;;;;;;;6135000;23;20437;-77
2023/04/06 06:11:58;;;;;;;26.80;21.23;;;;;;;;;;6129074;23;20409;-79
2023/04/06 06:14:35;;;;;;;29.80;22.40;;;;;;;;;;6128370;23;20545;-76
2023/04/06 06:17:21;;;;;;;28.10;20.50;;;;;;;;;;6130995;23;20464;-76
2023/04/06 06:19:54;;;;;;;21.73;16.93;;;;;;;;;;6130851;23;20417;-76
2023/04/06 06:22:35;;;;;;;20.07;16.20;;;;;;;;;;6128447;23;20413;-77
2023/04/06 06:25:10;;;;;;;16.93;15.13;;;;;;;;;;6129841;23;20416;-76
2023/04/06 06:27:47;;;;;;;19.63;16.33;;;;;;;;;;6130463;23;20899;-77
2023/04/06 06:30:20;;;;;;;21.33;16.80;;;;;;;;;;6128061;23;20488;-76
2023/04/06 06:32:56;;;;;;;17.33;15.20;;;;;;;;;;6127080;23;20437;-78
2023/04/06 06:35:24;;;;;;;17.03;15.20;;;;;;;;;;6126528;23;20464;-77
2023/04/06 06:37:55;;;;;;;16.87;15.13;;;;;;;;;;6126218;23;20471;-77
2023/04/06 06:40:45;;;;;;;16.70;14.90;;;;;;;;;;6125757;23;20414;-75
2023/04/06 06:43:23;;;;;;;21.10;15.47;;;;;;;;;;6125772;23;20500;-77
2023/04/06 06:46:00;;;;;;;16.87;15.17;;;;;;;;;;6125015;23;20511;-75
2023/04/06 06:51:33;;;;;;;17.27;15.47;;;;;;;;;;6102320;23;20420;-76
2023/04/06 06:54:12;;;;;;;17.23;15.53;;;;;;;;;;6128741;23;20491;-75
2023/04/06 06:56:50;;;;;;;15.97;14.03;;;;;;;;;;6130170;23;20500;-77
2023/04/06 06:59:26;;;;;;;16.83;15.07;;;;;;;;;;6130405;23;20437;-78
2023/04/06 07:02:02;;;;;;;18.10;15.90;;;;;;;;;;6129879;23;20937;-77
2023/04/06 07:04:52;;;;;;;21.20;15.50;;;;;;;;;;6127874;23;20577;-76
2023/04/06 07:10:18;;;;;;;17.73;15.83;;;;;;;;;;6126356;23;20509;-78
2023/04/06 07:13:21;;;;;;;19.13;17.10;;;;;;;;;;6128977;23;20926;-78
2023/04/06 07:15:58;;;;;;;17.93;16.10;;;;;;;;;;6127615;23;20591;-77
2023/04/06 07:18:38;;;;;;;17.80;16.00;;;;;;;;;;6126535;23;20432;-77
2023/04/06 07:21:10;;;;;;;19.50;16.33;;;;;;;;;;6128553;23;20946;-76
2023/04/06 07:29:36;;;;;;;17.60;15.80;;;;;;;;;;6135420;23;20413;-77
2023/04/06 07:32:31;;;;;;;17.83;16.23;;;;;;;;;;6138543;23;20436;-77
2023/04/06 07:37:59;;;;;;;17.07;15.27;;;;;;;;;;6131220;23;20405;-77
2023/04/06 08:02:27;;;;;;;17.03;15.30;;;;;;;;;;5902545;24;21122;-77
2023/04/06 08:08:08;;;;;;;20.00;17.13;;;;;;;;;;5957516;24;20920;-78
2023/04/06 08:10:48;;;;;;;18.80;16.80;;;;;;;;;;5958410;24;20418;-77
2023/04/06 08:13:28;;;;;;;19.03;16.97;;;;;;;;;;5958949;24;20441;-77
2023/04/06 08:16:09;;;;;;;17.90;16.00;;;;;;;;;;5990385;23;20435;-76
2023/04/06 08:18:38;;;;;;;19.00;17.10;;;;;;;;;;6114813;23;20796;-75
2023/04/06 08:21:12;;;;;;;17.63;15.83;;;;;;;;;;6133393;23;20412;-77
2023/04/06 08:23:47;;;;;;;19.53;16.17;;;;;;;;;;6134843;23;20415;-77
2023/04/06 08:26:19;;;;;;;18.40;16.40;;;;;;;;;;6134535;23;20444;-77
2023/04/06 08:28:56;;;;;;;18.90;15.80;;;;;;;;;;6135390;23;20492;-76
2023/04/06 08:31:27;;;;;;;20.70;16.60;;;;;;;;;;6137018;23;20377;-78
2023/04/06 08:33:58;;;;;;;17.43;15.60;;;;;;;;;;6135903;23;20484;-77
2023/04/06 08:36:39;;;;;;;18.50;15.97;;;;;;;;;;6137412;23;20976;-77
2023/04/06 08:39:27;;;;;;;16.73;15.13;;;;;;;;;;6133648;23;20945;-77
2023/04/06 08:41:59;;;;;;;18.90;16.90;;;;;;;;;;6134060;23;20408;-76
2023/04/06 08:44:37;;;;;;;;;;;;;;;;;;;;;
2023/04/06 08:50:23;;;;;;;22.60;16.57;;;;;;;;;;6138506;23;20405;-77
2023/04/06 08:52:52;;;;;;;18.10;16.27;;;;;;;;;;6134952;23;20485;-76
2023/04/06 08:55:22;;;;;;;17.63;15.63;;;;;;;;;;6134669;23;20455;-76
2023/04/06 08:57:53;;;;;;;17.77;15.87;;;;;;;;;;6135047;23;20413;-77
2023/04/06 09:00:41;;;;;;;16.90;14.90;;;;;;;;;;6133453;23;20413;-76
2023/04/06 09:03:11;;;;;;;17.60;15.90;;;;;;;;;;6143296;23;20394;-77
2023/04/06 09:05:44;;;;;;;17.13;14.87;;;;;;;;;;6142459;23;20429;-76
2023/04/06 09:08:22;;;;;;;17.47;15.77;;;;;;;;;;6135574;23;20436;-76
2023/04/06 09:10:52;;;;;;;14.53;13.20;;;;;;;;;;6135551;23;20404;-76
2023/04/06 09:13:26;;;;;;;15.43;14.00;;;;;;;;;;6131920;23;20749;-76
2023/04/06 09:16:01;;;;;;;14.27;12.67;;;;;;;;;;6135700;23;20433;-77
2023/04/06 09:18:33;;;;;;;16.20;13.87;;;;;;;;;;6135348;23;20416;-76
2023/04/06 09:21:05;;;;;;;16.83;14.30;;;;;;;;;;6133683;23;20417;-77
2023/04/06 09:23:33;;;;;;;14.23;12.73;;;;;;;;;;6127652;23;20420;-77
2023/04/06 09:26:22;;;;;;;15.20;13.80;;;;;;;;;;6127766;23;20973;-77
2023/04/06 09:29:21;;;;;;;14.17;12.83;;;;;;;;;;6128574;23;20427;-77
2023/04/06 09:32:01;;;;;;;13.50;12.20;;;;;;;;;;6128566;23;20417;-77
2023/04/06 09:34:48;;;;;;;16.10;13.70;;;;;;;;;;6133162;23;20472;-76
2023/04/06 09:37:25;;;;;;;15.10;13.50;;;;;;;;;;6131500;23;20436;-76
2023/04/06 09:40:17;;;;;;;14.23;12.83;;;;;;;;;;6129708;23;20476;-77
2023/04/06 09:42:51;;;;;;;13.63;12.33;;;;;;;;;;6127036;23;20759;-78
2023/04/06 09:45:24;;;;;;;16.13;12.53;;;;;;;;;;6128216;23;20765;-77
2023/04/06 09:47:56;;;;;;;12.57;11.23;;;;;;;;;;6127916;23;20436;-76
2023/04/06 09:50:28;;;;;;;11.93;10.77;;;;;;;;;;6128183;23;20413;-77
2023/04/06 09:52:59;;;;;;;15.10;12.10;;;;;;;;;;6127796;23;20451;-78
2023/04/06 09:55:36;;;;;;;14.20;12.10;;;;;;;;;;6127415;23;20440;-78
2023/04/06 09:58:10;;;;;;;12.67;11.47;;;;;;;;;;6126312;23;20902;-77
2023/04/06 10:00:44;;;;;;;12.57;11.27;;;;;;;;;;6126332;23;20497;-77
2023/04/06 10:03:25;;;;;;;13.53;12.13;;;;;;;;;;6125789;23;20428;-78
2023/04/06 10:06:00;;;;;;;11.57;10.57;;;;;;;;;;6125429;23;20499;-77
2023/04/06 10:08:32;;;;;;;12.20;11.00;;;;;;;;;;6125573;23;20413;-76
2023/04/06 10:11:05;;;;;;;11.70;10.60;;;;;;;;;;6126085;23;20480;-77
2023/04/06 10:13:36;;;;;;;11.27;10.10;;;;;;;;;;6125395;23;20451;-77
2023/04/06 10:16:07;;;;;;;12.50;11.10;;;;;;;;;;6125775;23;20934;-78
2023/04/06 10:18:40;;;;;;;12.60;11.40;;;;;;;;;;6125818;23;20457;-78
2023/04/06 10:21:11;;;;;;;11.63;10.60;;;;;;;;;;6125793;23;20744;-77
2023/04/06 10:23:43;;;;;;;11.17;10.27;;;;;;;;;;6125225;23;20818;-78
2023/04/06 10:26:18;;;;;;;10.03;9.23;;;;;;;;;;6124478;23;20440;-77
2023/04/06 10:28:49;;;;;;;10.53;9.50;;;;;;;;;;6125356;23;20394;-77
2023/04/06 10:31:29;;;;;;;10.60;9.67;;;;;;;;;;6127042;23;20389;-78
2023/04/06 10:34:00;;;;;;;12.57;10.27;;;;;;;;;;6125092;23;20446;-78
2023/04/06 10:36:38;;;;;;;10.90;9.93;;;;;;;;;;6125965;23;20476;-77
2023/04/06 10:39:11;;;;;;;11.90;10.90;;;;;;;;;;6126944;23;20713;-77
2023/04/06 10:41:50;;;;;;;11.47;10.43;;;;;;;;;;6126958;23;20455;-77
2023/04/06 10:44:28;;;;;;;10.37;9.47;;;;;;;;;;6132108;23;20763;-77
2023/04/06 10:47:01;;;;;;;10.53;9.63;;;;;;;;;;6130494;23;20441;-77
2023/04/06 10:49:37;;;;;;;11.53;10.43;;;;;;;;;;6129830;23;20501;-77
2023/04/06 10:52:16;;;;;;;11.53;10.33;;;;;;;;;;6128981;23;20405;-77
2023/04/06 10:54:48;;;;;;;10.73;9.73;;;;;;;;;;6129532;23;20512;-78
2023/04/06 10:57:15;;;;;;;10.60;9.50;;;;;;;;;;6133465;23;20437;-78
2023/04/06 11:02:52;;;;;;;11.33;9.20;;;;;;;;;;6127894;23;21121;-77
2023/04/06 11:08:13;;;;;;;10.67;9.57;;;;;;;;;;6132481;23;20484;-75
2023/04/06 11:11:00;;;;;;;8.90;8.10;;;;;;;;;;6132378;23;20421;-75
2023/04/06 11:13:42;;;;;;;9.97;9.07;;;;;;;;;;6131159;23;20416;-76
2023/04/06 11:22:45;;;;;;;9.80;9.00;;;;;;;;;;6042179;23;20396;-77
2023/04/06 11:25:27;;;;;;;9.60;8.67;;;;;;;;;;6041303;23;20411;-76
2023/04/06 11:31:04;;;;;;;10.20;8.90;;;;;;;;;;6051323;23;20419;-77
2023/04/06 11:33:57;;;;;;;;;;;;;;;;;;;;;
2023/04/06 11:36:46;;;;;;;10.53;9.37;;;;;;;;;;6132987;23;20445;-76
2023/04/06 11:39:41;;;;;;;10.20;9.20;;;;;;;;;;6133507;23;20487;-77
2023/04/06 11:45:10;;;;;;;10.50;8.33;;;;;;;;;;6127727;23;20409;-75
2023/04/06 11:48:01;;;;;;;9.43;8.50;;;;;;;;;;6132995;23;20424;-76
2023/04/06 11:50:35;;;;;;;10.30;9.30;;;;;;;;;;6133137;23;20431;-76
2023/04/06 11:53:16;;;;;;;8.73;7.93;;;;;;;;;;6132278;23;20428;-77
2023/04/06 11:55:51;;;;;;;9.17;8.47;;;;;;;;;;6132663;23;20449;-76
2023/04/06 11:58:24;;;;;;;9.33;8.37;;;;;;;;;;6131933;23;20421;-76
2023/04/06 12:00:55;;;;;;;10.40;9.50;;;;;;;;;;6134504;23;20409;-76
2023/04/06 12:03:27;;;;;;;9.33;8.50;;;;;;;;;;6134573;23;20443;-75
2023/04/06 12:05:57;;;;;;;9.73;8.47;;;;;;;;;;6133123;23;20501;-77
2023/04/06 12:08:29;;;;;;;9.37;8.57;;;;;;;;;;6134207;23;20512;-76
2023/04/06 12:11:02;;;;;;;10.07;8.97;;;;;;;;;;6131706;23;20413;-75
2023/04/06 12:13:40;;;;;;;8.93;8.03;;;;;;;;;;6134929;23;20404;-76
2023/04/06 12:16:12;;;;;;;10.30;9.40;;;;;;;;;;6135792;23;20445;-76
2023/04/06 12:21:44;;;;;;;10.30;8.40;;;;;;;;;;6129603;23;20413;-76
2023/04/06 12:24:27;;;;;;;8.63;7.93;;;;;;;;;;6133561;23;20417;-76
2023/04/06 12:27:08;;;;;;;9.43;8.53;;;;;;;;;;6130506;23;20517;-77
2023/04/06 12:29:49;;;;;;;8.07;7.47;;;;;;;;;;6129344;23;20475;-76
2023/04/06 12:32:19;;;;;;;9.10;8.30;;;;;;;;;;6128122;23;20484;-75
2023/04/06 12:34:53;;;;;;;9.03;7.97;;;;;;;;;;6128837;23;20444;-75
2023/04/06 12:37:27;;;;;;;9.50;8.70;;;;;;;;;;6119277;23;20436;-76
2023/04/06 12:40:16;;;;;;;;;;;;;;;;;;;;;
2023/04/06 12:42:48;;;;;;;9.17;8.37;;;;;;;;;;6128577;23;20400;-76
2023/04/06 12:45:25;;;;;;;7.67;7.07;;;;;;;;;;6128351;23;20484;-75
2023/04/06 12:47:53;;;;;;;8.53;7.73;;;;;;;;;;6128722;23;20496;-75
2023/04/06 12:50:27;;;;;;;8.80;8.07;;;;;;;;;;6129814;23;20417;-75
2023/04/06 12:53:11;;;;;;;9.10;8.20;;;;;;;;;;6130745;23;20447;-75
2023/04/06 12:55:53;;;;;;;8.67;7.87;;;;;;;;;;6130876;23;20973;-76
2023/04/06 12:58:31;;;;;;;8.80;7.90;;;;;;;;;;6131131;23;20416;-75
2023/04/06 13:03:46;;;;;;;8.00;7.20;;;;;;;;;;6134118;23;20974;-74
2023/04/06 13:06:18;;;;;;;9.33;8.63;;;;;;;;;;6134705;23;20437;-77
2023/04/06 13:08:51;;;;;;;8.90;8.10;;;;;;;;;;6135011;23;20441;-76
2023/04/06 13:14:14;;;;;;;8.37;7.53;;;;;;;;;;6134760;23;20464;-76
2023/04/06 13:17:00;;;;;;;8.13;7.47;;;;;;;;;;6134857;23;20918;-75
2023/04/06 13:19:32;;;;;;;9.67;8.67;;;;;;;;;;6133938;23;20413;-76
2023/04/06 13:22:00;;;;;;;8.97;8.20;;;;;;;;;;6129576;23;20409;-76
2023/04/06 13:24:34;;;;;;;9.80;8.80;;;;;;;;;;6131191;23;20408;-76
2023/04/06 13:27:20;;;;;;;7.63;6.93;;;;;;;;;;6132123;23;20444;-77
2023/04/06 13:29:55;;;;;;;7.67;6.80;;;;;;;;;;6131834;23;20417;-76
2023/04/06 13:32:26;;;;;;;8.87;8.07;;;;;;;;;;6136135;23;20503;-77
2023/04/06 13:35:07;;;;;;;7.90;7.10;;;;;;;;;;6135604;23;20531;-75
2023/04/06 13:37:34;;;;;;;8.30;7.60;;;;;;;;;;6134951;23;20413;-75
2023/04/06 13:40:04;;;;;;;9.07;8.27;;;;;;;;;;6129716;23;20424;-77
2023/04/06 13:42:32;;;;;;;8.00;7.30;;;;;;;;;;6127102;23;20428;-75
2023/04/06 13:45:01;;;;;;;8.93;8.13;;;;;;;;;;6127867;23;20432;-76
2023/04/06 13:47:28;;;;;;;8.27;7.57;;;;;;;;;;6130908;23;20467;-76
2023/04/06 13:50:03;;;;;;;8.83;8.03;;;;;;;;;;6130691;23;20420;-77
2023/04/06 13:52:31;;;;;;;8.53;7.83;;;;;;;;;;6130164;23;20459;-75
2023/04/06 13:54:59;;;;;;;7.90;7.20;;;;;;;;;;6131530;23;20496;-76
2023/04/06 13:57:29;;;;;;;8.67;7.77;;;;;;;;;;6131596;23;20799;-76
2023/04/06 13:59:57;;;;;;;8.90;8.10;;;;;;;;;;6130005;23;20393;-76
2023/04/06 14:02:29;;;;;;;9.20;8.20;;;;;;;;;;6128478;23;20504;-76
2023/04/06 14:04:56;;;;;;;8.50;7.67;;;;;;;;;;6129191;23;20954;-76
2023/04/06 14:07:24;;;;;;;8.10;7.40;;;;;;;;;;6129430;23;20444;-75
2023/04/06 14:10:04;;;;;;;8.20;7.40;;;;;;;;;;6127973;23;20459;-75
2023/04/06 14:12:35;;;;;;;9.93;8.37;;;;;;;;;;6127781;23;20394;-76
2023/04/06 14:15:04;;;;;;;9.43;8.47;;;;;;;;;;6127837;23;20429;-75
2023/04/06 14:17:33;;;;;;;8.47;7.77;;;;;;;;;;6131671;23;20408;-77
2023/04/06 14:20:05;;;;;;;8.63;7.93;;;;;;;;;;6133379;23;20433;-76
2023/04/06 14:22:33;;;;;;;8.63;7.93;;;;;;;;;;6135584;23;20495;-75
2023/04/06 14:25:00;;;;;;;9.30;8.40;;;;;;;;;;6135491;23;20420;-75
2023/04/06 14:27:28;;;;;;;8.73;7.93;;;;;;;;;;6130741;23;20424;-75
2023/04/06 14:29:56;;;;;;;8.50;7.70;;;;;;;;;;6131368;23;20414;-75
2023/04/06 14:32:27;;;;;;;8.77;7.97;;;;;;;;;;6135231;23;20413;-74
2023/04/06 14:34:58;;;;;;;9.30;8.40;;;;;;;;;;6137682;23;20452;-75
2023/04/06 14:37:28;;;;;;;8.77;7.97;;;;;;;;;;6139733;23;20417;-76
2023/04/06 14:39:59;;;;;;;7.87;7.17;;;;;;;;;;6141729;23;20412;-76
2023/04/06 14:42:28;;;;;;;8.20;7.40;;;;;;;;;;6132979;23;20412;-78
2023/04/06 14:45:05;;;;;;;9.17;8.20;;;;;;;;;;6132926;23;20413;-76
2023/04/06 14:47:34;;;;;;;8.00;7.17;;;;;;;;;;6132128;23;20419;-77
2023/04/06 14:50:14;;;;;;;8.53;7.70;;;;;;;;;;6133987;23;20424;-76
2023/04/06 14:52:42;;;;;;;8.97;8.07;;;;;;;;;;6137777;23;20831;-77
2023/04/06 14:55:10;;;;;;;9.40;7.37;;;;;;;;;;6139928;23;20433;-75
2023/04/06 14:57:39;;;;;;;7.53;6.83;;;;;;;;;;6139880;23;20486;-76
2023/04/06 15:00:18;;;;;;;8.27;7.53;;;;;;;;;;6139548;23;20417;-76
2023/04/06 15:02:46;;;;;;;7.83;7.13;;;;;;;;;;6135339;23;20413;-76
2023/04/06 15:05:17;;;;;;;8.93;8.03;;;;;;;;;;6131645;23;20405;-76
2023/04/06 15:07:58;;;;;;;8.00;7.30;;;;;;;;;;6127228;23;20429;-76
2023/04/06 15:10:29;;;;;;;9.83;8.70;;;;;;;;;;6125115;23;20765;-76
2023/04/06 15:12:58;;;;;;;8.47;7.67;;;;;;;;;;6125855;23;20421;-77
2023/04/06 15:15:28;;;;;;;9.07;8.27;;;;;;;;;;6128203;23;20783;-76
2023/04/06 15:17:56;;;;;;;9.50;7.07;;;;;;;;;;6131393;23;20412;-75
2023/04/06 15:20:29;;;;;;;9.83;8.93;;;;;;;;;;6134302;23;20436;-76
2023/04/06 15:22:57;;;;;;;9.30;8.40;;;;;;;;;;6131858;23;20513;-77
2023/04/06 15:25:28;;;;;;;8.80;8.10;;;;;;;;;;6130286;23;20440;-76
2023/04/06 15:27:56;;;;;;;8.10;7.50;;;;;;;;;;6131166;23;20489;-75
2023/04/06 15:30:24;;;;;;;8.23;7.43;;;;;;;;;;6129288;23;20423;-76
2023/04/06 15:33:00;;;;;;;8.37;7.63;;;;;;;;;;6129184;23;20496;-75
2023/04/06 15:35:31;;;;;;;9.10;8.30;;;;;;;;;;6126871;23;20448;-76
2023/04/06 15:37:59;;;;;;;8.70;7.90;;;;;;;;;;6126470;23;20614;-78
2023/04/06 15:40:27;;;;;;;9.50;8.60;;;;;;;;;;6124979;23;20512;-77
2023/04/06 15:42:56;;;;;;;9.00;8.20;;;;;;;;;;6126043;23;20476;-78
2023/04/06 15:45:26;;;;;;;8.77;8.07;;;;;;;;;;6132222;23;20433;-76
2023/04/06 15:47:55;;;;;;;8.97;8.17;;;;;;;;;;6127298;23;20448;-77
2023/04/06 15:53:41;;;;;;;8.67;7.87;;;;;;;;;;6132533;23;20406;-76
2023/04/06 15:56:13;;;;;;;9.37;8.03;;;;;;;;;;6124401;23;20788;-75
2023/04/06 15:58:41;;;;;;;9.67;8.67;;;;;;;;;;6129753;23;20413;-77
2023/04/06 16:01:13;;;;;;;9.50;8.50;;;;;;;;;;6130119;23;20427;-76
2023/04/06 16:03:44;;;;;;;9.70;8.27;;;;;;;;;;6130302;23;20443;-76
2023/04/06 16:06:16;;;;;;;9.50;8.60;;;;;;;;;;6129932;23;20418;-77
2023/04/06 16:08:47;;;;;;;8.80;7.93;;;;;;;;;;6129647;23;20880;-76
2023/04/06 16:11:18;;;;;;;8.23;7.53;;;;;;;;;;6129596;23;20481;-76
2023/04/06 16:13:48;;;;;;;8.23;7.43;;;;;;;;;;6132583;23;20425;-76
2023/04/06 16:16:16;;;;;;;8.30;7.43;;;;;;;;;;6132808;23;20830;-76
2023/04/06 16:18:59;;;;;;;8.03;7.33;;;;;;;;;;6133906;23;20428;-76
2023/04/06 16:21:40;;;;;;;9.23;8.40;;;;;;;;;;6136630;23;20428;-75
2023/04/06 16:24:29;;;;;;;;;;;;;;;;;;;;;
2023/04/06 16:27:06;;;;;;;9.10;8.20;;;;;;;;;;6139041;23;20436;-76
2023/04/06 16:29:37;;;;;;;9.73;8.20;;;;;;;;;;6139169;23;20408;-76
2023/04/06 16:32:19;;;;;;;9.57;8.67;;;;;;;;;;6137122;23;20409;-77
2023/04/06 16:34:52;;;;;;;8.13;7.40;;;;;;;;;;6134238;23;20511;-78
2023/04/06 16:37:20;;;;;;;9.70;8.80;;;;;;;;;;6130100;23;20495;-77
2023/04/06 16:39:50;;;;;;;10.80;9.70;;;;;;;;;;6130607;23;20459;-76
2023/04/06 16:42:23;;;;;;;9.80;8.90;;;;;;;;;;6131622;23;20417;-77
2023/04/06 16:44:52;;;;;;;8.23;7.53;;;;;;;;;;6131170;23;20443;-77
2023/04/06 16:47:22;;;;;;;11.20;8.73;;;;;;;;;;6130395;23;20487;-76
2023/04/06 16:49:54;;;;;;;10.50;9.40;;;;;;;;;;6132426;23;20429;-77
2023/04/06 16:52:28;;;;;;;12.00;9.30;;;;;;;;;;6130707;23;20413;-77
2023/04/06 16:54:55;;;;;;;12.77;11.53;;;;;;;;;;6127802;23;20508;-76
2023/04/06 16:57:28;;;;;;;11.90;10.70;;;;;;;;;;6127899;23;20467;-76
2023/04/06 16:59:59;;;;;;;11.70;10.47;;;;;;;;;;6131661;23;20436;-76
2023/04/06 17:02:27;;;;;;;12.57;10.60;;;;;;;;;;6134519;23;20405;-76
2023/04/06 17:04:57;;;;;;;12.40;11.30;;;;;;;;;;6131804;23;20444;-77
2023/04/06 17:07:31;;;;;;;11.77;10.67;;;;;;;;;;6130364;23;20548;-76
2023/04/06 17:10:02;;;;;;;11.23;10.10;;;;;;;;;;6130973;23;20531;-76
2023/04/06 17:12:45;;;;;;;10.63;9.60;;;;;;;;;;6129513;23;20410;-77
2023/04/06 17:18:06;;;;;;;10.10;9.07;;;;;;;;;;6126442;23;20740;-77
2023/04/06 17:20:48;;;;;;;10.40;9.07;;;;;;;;;;6130183;23;20393;-77
2023/04/06 17:23:30;;;;;;;9.13;8.23;;;;;;;;;;6128115;23;20410;-78
2023/04/06 17:26:14;;;;;;;8.63;7.83;;;;;;;;;;6128916;23;20445;-77
2023/04/06 17:32:07;;;;;;;;;;;;;;;;;;;;;
2023/04/06 17:34:44;;;;;;;8.07;7.27;;;;;;;;;;6128630;23;20412;-78
2023/04/06 17:37:33;;;;;;;7.97;7.20;;;;;;;;;;6129021;23;20440;-77
2023/04/06 17:40:13;;;;;;;7.30;6.63;;;;;;;;;;6133217;23;20504;-78
2023/04/06 17:42:53;;;;;;;6.63;6.00;;;;;;;;;;6132665;23;20421;-75
2023/04/06 17:45:29;;;;;;;8.37;6.13;;;;;;;;;;6128890;23;20425;-77
2023/04/06 17:48:00;;;;;;;7.77;6.13;;;;;;;;;;6131291;23;20416;-77